sensor_id;sensor_type;location;lat;lon;timestamp;P1;durP1;ratioP1;P2;durP2;ratioP2
51594;SDS011;37677;53.254;6.594;2023-01-16T00:00:31;8.85;;;5.32;;
51594;SDS011;37677;53.254;6.594;2023-01-16T00:02:56;10.80;;;5.60;;
51594;SDS011;37677;53.254;6.594;2023-01-16T00:05:22;8.52;;;5.35;;
51594;SDS011;37677;53.254;6.594;2023-01-16T00:07:47;8.85;;;5.22;;
51594;SDS011;37677;53.254;6.594;2023-01-16T00:10:13;6.10;;;4.88;;
51594;SDS011;37677;53.254;6.594;2023-01-16T00:12:41;7.13;;;4.78;;
51594;SDS011;37677;53.254;6.594;2023-01-16T00:15:07;8.23;;;4.80;;
51594;SDS011;37677;53.254;6.594;2023-01-16T00:17:33;7.63;;;4.82;;
51594;SDS011;37677;53.254;6.594;2023-01-16T00:19:58;6.95;;;5.13;;
51594;SDS011;37677;53.254;6.594;2023-01-16T00:22:24;8.43;;;5.03;;
51594;SDS011;37677;53.254;6.594;2023-01-16T00:24:49;12.90;;;5.72;;
51594;SDS011;37677;53.254;6.594;2023-01-16T00:27:15;8.00;;;5.35;;
51594;SDS011;37677;53.254;6.594;2023-01-16T00:29:41;10.35;;;6.30;;
51594;SDS011;37677;53.254;6.594;2023-01-16T00:32:06;8.95;;;5.32;;
51594;SDS011;37677;53.254;6.594;2023-01-16T00:34:32;10.60;;;6.13;;
51594;SDS011;37677;53.254;6.594;2023-01-16T00:36:58;8.68;;;6.18;;
51594;SDS011;37677;53.254;6.594;2023-01-16T00:39:23;9.98;;;6.28;;
51594;SDS011;37677;53.254;6.594;2023-01-16T00:41:49;8.93;;;6.35;;
51594;SDS011;37677;53.254;6.594;2023-01-16T00:44:15;8.27;;;6.22;;
51594;SDS011;37677;53.254;6.594;2023-01-16T00:46:41;13.70;;;5.70;;
51594;SDS011;37677;53.254;6.594;2023-01-16T00:49:06;8.65;;;5.72;;
51594;SDS011;37677;53.254;6.594;2023-01-16T00:51:32;8.40;;;5.60;;
51594;SDS011;37677;53.254;6.594;2023-01-16T00:53:58;10.27;;;5.10;;
51594;SDS011;37677;53.254;6.594;2023-01-16T00:56:23;8.02;;;5.10;;
51594;SDS011;37677;53.254;6.594;2023-01-16T00:58:49;8.68;;;5.13;;
51594;SDS011;37677;53.254;6.594;2023-01-16T01:01:15;8.07;;;5.15;;
51594;SDS011;37677;53.254;6.594;2023-01-16T01:03:40;8.15;;;4.78;;
51594;SDS011;37677;53.254;6.594;2023-01-16T01:06:07;7.30;;;4.38;;
51594;SDS011;37677;53.254;6.594;2023-01-16T01:08:33;8.35;;;4.88;;
51594;SDS011;37677;53.254;6.594;2023-01-16T01:11:20;9.80;;;4.50;;
51594;SDS011;37677;53.254;6.594;2023-01-16T01:13:46;8.38;;;4.18;;
51594;SDS011;37677;53.254;6.594;2023-01-16T01:16:12;8.40;;;4.30;;
51594;SDS011;37677;53.254;6.594;2023-01-16T01:18:38;9.80;;;4.05;;
51594;SDS011;37677;53.254;6.594;2023-01-16T01:21:04;7.55;;;4.10;;
51594;SDS011;37677;53.254;6.594;2023-01-16T01:23:31;9.50;;;3.83;;
51594;SDS011;37677;53.254;6.594;2023-01-16T01:25:57;9.13;;;4.10;;
51594;SDS011;37677;53.254;6.594;2023-01-16T01:28:22;9.25;;;3.97;;
51594;SDS011;37677;53.254;6.594;2023-01-16T01:30:48;9.55;;;4.35;;
51594;SDS011;37677;53.254;6.594;2023-01-16T01:33:14;6.10;;;3.58;;
51594;SDS011;37677;53.254;6.594;2023-01-16T01:35:40;7.93;;;3.70;;
51594;SDS011;37677;53.254;6.594;2023-01-16T01:38:05;8.00;;;3.53;;
51594;SDS011;37677;53.254;6.594;2023-01-16T01:40:32;9.93;;;3.50;;
51594;SDS011;37677;53.254;6.594;2023-01-16T01:42:58;7.30;;;3.05;;
51594;SDS011;37677;53.254;6.594;2023-01-16T01:45:28;9.85;;;4.03;;
51594;SDS011;37677;53.254;6.594;2023-01-16T01:50:44;5.93;;;3.20;;
51594;SDS011;37677;53.254;6.594;2023-01-16T01:56:05;9.13;;;3.42;;
51594;SDS011;37677;53.254;6.594;2023-01-16T01:58:36;7.40;;;3.60;;
51594;SDS011;37677;53.254;6.594;2023-01-16T02:01:01;6.07;;;2.95;;
51594;SDS011;37677;53.254;6.594;2023-01-16T02:03:42;8.32;;;3.13;;
51594;SDS011;37677;53.254;6.594;2023-01-16T02:06:14;7.53;;;2.97;;
51594;SDS011;37677;53.254;6.594;2023-01-16T02:08:43;9.55;;;3.20;;
51594;SDS011;37677;53.254;6.594;2023-01-16T02:11:11;10.27;;;3.88;;
51594;SDS011;37677;53.254;6.594;2023-01-16T02:13:54;9.52;;;3.80;;
51594;SDS011;37677;53.254;6.594;2023-01-16T02:16:22;8.98;;;3.60;;
51594;SDS011;37677;53.254;6.594;2023-01-16T02:19:09;10.00;;;3.70;;
51594;SDS011;37677;53.254;6.594;2023-01-16T02:24:43;10.18;;;3.47;;
51594;SDS011;37677;53.254;6.594;2023-01-16T02:32:55;9.90;;;3.45;;
51594;SDS011;37677;53.254;6.594;2023-01-16T02:35:32;9.65;;;3.50;;
51594;SDS011;37677;53.254;6.594;2023-01-16T02:52:35;9.52;;;4.00;;
51594;SDS011;37677;53.254;6.594;2023-01-16T02:57:47;10.68;;;4.00;;
51594;SDS011;37677;53.254;6.594;2023-01-16T03:00:19;11.57;;;4.00;;
51594;SDS011;37677;53.254;6.594;2023-01-16T03:02:46;10.45;;;3.92;;
51594;SDS011;37677;53.254;6.594;2023-01-16T03:05:12;7.60;;;3.85;;
51594;SDS011;37677;53.254;6.594;2023-01-16T03:16:10;7.57;;;3.40;;
51594;SDS011;37677;53.254;6.594;2023-01-16T03:36:10;8.57;;;4.15;;
51594;SDS011;37677;53.254;6.594;2023-01-16T03:38:59;10.10;;;4.35;;
51594;SDS011;37677;53.254;6.594;2023-01-16T03:41:27;7.97;;;3.55;;
51594;SDS011;37677;53.254;6.594;2023-01-16T03:43:58;11.25;;;3.78;;
51594;SDS011;37677;53.254;6.594;2023-01-16T03:46:28;7.45;;;3.70;;
51594;SDS011;37677;53.254;6.594;2023-01-16T03:48:58;9.40;;;4.10;;
51594;SDS011;37677;53.254;6.594;2023-01-16T03:51:30;13.77;;;3.88;;
51594;SDS011;37677;53.254;6.594;2023-01-16T03:54:01;14.23;;;4.38;;
51594;SDS011;37677;53.254;6.594;2023-01-16T03:56:34;9.50;;;4.22;;
51594;SDS011;37677;53.254;6.594;2023-01-16T03:59:05;10.43;;;3.83;;
51594;SDS011;37677;53.254;6.594;2023-01-16T04:01:48;9.20;;;3.88;;
51594;SDS011;37677;53.254;6.594;2023-01-16T04:04:38;12.38;;;4.20;;
51594;SDS011;37677;53.254;6.594;2023-01-16T04:07:14;11.10;;;3.67;;
51594;SDS011;37677;53.254;6.594;2023-01-16T04:09:46;10.18;;;4.18;;
51594;SDS011;37677;53.254;6.594;2023-01-16T04:12:19;9.82;;;3.65;;
51594;SDS011;37677;53.254;6.594;2023-01-16T04:14:48;13.90;;;4.20;;
51594;SDS011;37677;53.254;6.594;2023-01-16T04:17:20;11.15;;;3.97;;
51594;SDS011;37677;53.254;6.594;2023-01-16T04:19:46;9.77;;;4.20;;
51594;SDS011;37677;53.254;6.594;2023-01-16T04:22:19;9.52;;;3.97;;
51594;SDS011;37677;53.254;6.594;2023-01-16T04:24:47;6.68;;;4.10;;
51594;SDS011;37677;53.254;6.594;2023-01-16T04:27:14;13.65;;;4.47;;
51594;SDS011;37677;53.254;6.594;2023-01-16T04:29:41;10.38;;;4.38;;
51594;SDS011;37677;53.254;6.594;2023-01-16T04:32:06;8.05;;;4.38;;
51594;SDS011;37677;53.254;6.594;2023-01-16T04:34:32;13.55;;;4.80;;
51594;SDS011;37677;53.254;6.594;2023-01-16T04:36:58;9.30;;;4.45;;
51594;SDS011;37677;53.254;6.594;2023-01-16T04:39:23;8.23;;;4.15;;
51594;SDS011;37677;53.254;6.594;2023-01-16T04:41:49;11.18;;;4.32;;
51594;SDS011;37677;53.254;6.594;2023-01-16T04:44:16;16.77;;;5.15;;
51594;SDS011;37677;53.254;6.594;2023-01-16T04:46:42;9.05;;;5.05;;
51594;SDS011;37677;53.254;6.594;2023-01-16T04:49:07;9.32;;;5.15;;
51594;SDS011;37677;53.254;6.594;2023-01-16T04:51:34;8.98;;;5.00;;
51594;SDS011;37677;53.254;6.594;2023-01-16T04:54:01;11.38;;;5.63;;
51594;SDS011;37677;53.254;6.594;2023-01-16T04:56:27;12.00;;;5.85;;
51594;SDS011;37677;53.254;6.594;2023-01-16T04:58:53;9.07;;;5.50;;
51594;SDS011;37677;53.254;6.594;2023-01-16T05:01:20;11.73;;;5.65;;
51594;SDS011;37677;53.254;6.594;2023-01-16T05:03:46;10.82;;;5.80;;
51594;SDS011;37677;53.254;6.594;2023-01-16T05:06:12;9.07;;;5.45;;
51594;SDS011;37677;53.254;6.594;2023-01-16T05:08:38;12.23;;;5.70;;
51594;SDS011;37677;53.254;6.594;2023-01-16T05:11:03;14.65;;;6.38;;
51594;SDS011;37677;53.254;6.594;2023-01-16T05:13:29;11.18;;;6.60;;
51594;SDS011;37677;53.254;6.594;2023-01-16T05:15:55;10.35;;;6.70;;
51594;SDS011;37677;53.254;6.594;2023-01-16T05:18:21;9.88;;;6.82;;
51594;SDS011;37677;53.254;6.594;2023-01-16T05:20:47;12.65;;;6.80;;
51594;SDS011;37677;53.254;6.594;2023-01-16T05:23:13;14.60;;;7.20;;
51594;SDS011;37677;53.254;6.594;2023-01-16T05:25:39;11.07;;;6.50;;
51594;SDS011;37677;53.254;6.594;2023-01-16T05:28:05;14.35;;;7.32;;
51594;SDS011;37677;53.254;6.594;2023-01-16T05:30:31;11.68;;;7.20;;
51594;SDS011;37677;53.254;6.594;2023-01-16T05:32:56;13.82;;;6.90;;
51594;SDS011;37677;53.254;6.594;2023-01-16T05:35:22;10.98;;;6.93;;
51594;SDS011;37677;53.254;6.594;2023-01-16T05:37:48;10.77;;;7.40;;
51594;SDS011;37677;53.254;6.594;2023-01-16T05:40:14;12.13;;;8.70;;
51594;SDS011;37677;53.254;6.594;2023-01-16T05:42:42;12.25;;;7.47;;
51594;SDS011;37677;53.254;6.594;2023-01-16T05:45:09;12.27;;;8.38;;
51594;SDS011;37677;53.254;6.594;2023-01-16T05:47:35;12.13;;;8.40;;
51594;SDS011;37677;53.254;6.594;2023-01-16T05:50:01;17.67;;;9.35;;
51594;SDS011;37677;53.254;6.594;2023-01-16T05:52:27;14.40;;;8.25;;
51594;SDS011;37677;53.254;6.594;2023-01-16T05:54:53;13.32;;;8.65;;
51594;SDS011;37677;53.254;6.594;2023-01-16T05:57:19;12.70;;;9.57;;
51594;SDS011;37677;53.254;6.594;2023-01-16T05:59:48;18.38;;;10.63;;
51594;SDS011;37677;53.254;6.594;2023-01-16T06:02:15;18.83;;;11.45;;
51594;SDS011;37677;53.254;6.594;2023-01-16T06:04:42;17.25;;;12.90;;
51594;SDS011;37677;53.254;6.594;2023-01-16T06:07:07;15.40;;;11.95;;
51594;SDS011;37677;53.254;6.594;2023-01-16T06:09:33;17.60;;;13.73;;
51594;SDS011;37677;53.254;6.594;2023-01-16T06:11:59;17.90;;;13.27;;
51594;SDS011;37677;53.254;6.594;2023-01-16T06:14:24;21.70;;;14.32;;
51594;SDS011;37677;53.254;6.594;2023-01-16T06:16:50;17.45;;;14.27;;
51594;SDS011;37677;53.254;6.594;2023-01-16T06:19:16;19.02;;;13.63;;
51594;SDS011;37677;53.254;6.594;2023-01-16T06:21:41;18.33;;;13.60;;
51594;SDS011;37677;53.254;6.594;2023-01-16T06:24:08;19.50;;;14.20;;
51594;SDS011;37677;53.254;6.594;2023-01-16T06:26:34;17.92;;;12.93;;
51594;SDS011;37677;53.254;6.594;2023-01-16T06:28:59;18.75;;;13.23;;
51594;SDS011;37677;53.254;6.594;2023-01-16T06:31:25;16.90;;;12.57;;
51594;SDS011;37677;53.254;6.594;2023-01-16T06:33:51;23.10;;;13.60;;
51594;SDS011;37677;53.254;6.594;2023-01-16T06:36:17;19.63;;;13.25;;
51594;SDS011;37677;53.254;6.594;2023-01-16T06:38:42;20.10;;;14.20;;
51594;SDS011;37677;53.254;6.594;2023-01-16T06:41:08;19.63;;;14.20;;
51594;SDS011;37677;53.254;6.594;2023-01-16T06:43:35;22.50;;;15.35;;
51594;SDS011;37677;53.254;6.594;2023-01-16T06:46:00;24.08;;;15.32;;
51594;SDS011;37677;53.254;6.594;2023-01-16T06:48:26;18.73;;;15.50;;
51594;SDS011;37677;53.254;6.594;2023-01-16T06:50:52;18.50;;;14.68;;
51594;SDS011;37677;53.254;6.594;2023-01-16T06:53:18;19.80;;;15.05;;
51594;SDS011;37677;53.254;6.594;2023-01-16T06:55:44;18.05;;;14.27;;
51594;SDS011;37677;53.254;6.594;2023-01-16T06:58:09;19.73;;;14.38;;
51594;SDS011;37677;53.254;6.594;2023-01-16T07:00:35;17.88;;;14.50;;
51594;SDS011;37677;53.254;6.594;2023-01-16T07:03:02;22.52;;;15.07;;
51594;SDS011;37677;53.254;6.594;2023-01-16T07:05:28;20.80;;;14.52;;
51594;SDS011;37677;53.254;6.594;2023-01-16T07:07:55;19.95;;;14.05;;
51594;SDS011;37677;53.254;6.594;2023-01-16T07:10:21;20.25;;;14.80;;
51594;SDS011;37677;53.254;6.594;2023-01-16T07:12:48;15.88;;;13.82;;
51594;SDS011;37677;53.254;6.594;2023-01-16T07:15:14;18.90;;;12.98;;
51594;SDS011;37677;53.254;6.594;2023-01-16T07:17:58;19.50;;;13.30;;
51594;SDS011;37677;53.254;6.594;2023-01-16T07:20:47;22.92;;;13.57;;
51594;SDS011;37677;53.254;6.594;2023-01-16T07:23:36;21.75;;;13.55;;
51594;SDS011;37677;53.254;6.594;2023-01-16T07:26:05;19.98;;;12.70;;
51594;SDS011;37677;53.254;6.594;2023-01-16T07:28:32;19.40;;;12.00;;
51594;SDS011;37677;53.254;6.594;2023-01-16T07:30:58;18.02;;;11.85;;
51594;SDS011;37677;53.254;6.594;2023-01-16T07:33:28;19.92;;;12.35;;
51594;SDS011;37677;53.254;6.594;2023-01-16T07:35:54;21.83;;;12.40;;
51594;SDS011;37677;53.254;6.594;2023-01-16T07:38:19;22.00;;;12.35;;
51594;SDS011;37677;53.254;6.594;2023-01-16T07:40:45;17.95;;;11.93;;
51594;SDS011;37677;53.254;6.594;2023-01-16T07:43:11;23.23;;;12.10;;
51594;SDS011;37677;53.254;6.594;2023-01-16T07:45:36;15.38;;;10.98;;
51594;SDS011;37677;53.254;6.594;2023-01-16T07:48:02;20.17;;;11.75;;
51594;SDS011;37677;53.254;6.594;2023-01-16T07:50:28;18.40;;;12.35;;
51594;SDS011;37677;53.254;6.594;2023-01-16T07:52:54;16.67;;;11.88;;
51594;SDS011;37677;53.254;6.594;2023-01-16T07:55:20;19.40;;;11.32;;
51594;SDS011;37677;53.254;6.594;2023-01-16T07:57:45;15.18;;;11.40;;
51594;SDS011;37677;53.254;6.594;2023-01-16T08:00:11;22.27;;;12.18;;
51594;SDS011;37677;53.254;6.594;2023-01-16T08:02:41;17.88;;;11.55;;
51594;SDS011;37677;53.254;6.594;2023-01-16T08:05:08;16.75;;;10.82;;
51594;SDS011;37677;53.254;6.594;2023-01-16T08:07:35;19.90;;;11.00;;
51594;SDS011;37677;53.254;6.594;2023-01-16T08:10:01;17.50;;;11.07;;
51594;SDS011;37677;53.254;6.594;2023-01-16T08:12:27;17.05;;;11.55;;
51594;SDS011;37677;53.254;6.594;2023-01-16T08:14:53;18.55;;;11.77;;
51594;SDS011;37677;53.254;6.594;2023-01-16T08:17:19;18.55;;;11.88;;
51594;SDS011;37677;53.254;6.594;2023-01-16T08:19:44;15.90;;;11.90;;
51594;SDS011;37677;53.254;6.594;2023-01-16T08:22:10;20.60;;;12.73;;
51594;SDS011;37677;53.254;6.594;2023-01-16T08:24:35;20.30;;;11.88;;
51594;SDS011;37677;53.254;6.594;2023-01-16T08:27:01;23.17;;;12.13;;
51594;SDS011;37677;53.254;6.594;2023-01-16T08:29:27;19.08;;;12.38;;
51594;SDS011;37677;53.254;6.594;2023-01-16T08:31:53;17.30;;;12.75;;
51594;SDS011;37677;53.254;6.594;2023-01-16T08:34:18;17.17;;;13.48;;
51594;SDS011;37677;53.254;6.594;2023-01-16T08:36:44;21.45;;;13.68;;
51594;SDS011;37677;53.254;6.594;2023-01-16T08:39:10;16.83;;;11.73;;
51594;SDS011;37677;53.254;6.594;2023-01-16T08:41:37;18.42;;;13.30;;
51594;SDS011;37677;53.254;6.594;2023-01-16T08:44:21;18.85;;;12.25;;
51594;SDS011;37677;53.254;6.594;2023-01-16T08:47:08;18.73;;;12.45;;
51594;SDS011;37677;53.254;6.594;2023-01-16T08:49:55;14.30;;;11.05;;
51594;SDS011;37677;53.254;6.594;2023-01-16T08:52:40;16.77;;;10.90;;
51594;SDS011;37677;53.254;6.594;2023-01-16T08:55:07;17.77;;;9.95;;
51594;SDS011;37677;53.254;6.594;2023-01-16T08:57:33;18.35;;;11.30;;
51594;SDS011;37677;53.254;6.594;2023-01-16T09:00:00;17.42;;;10.82;;
51594;SDS011;37677;53.254;6.594;2023-01-16T09:02:26;20.73;;;10.45;;
51594;SDS011;37677;53.254;6.594;2023-01-16T09:04:52;15.05;;;9.80;;
51594;SDS011;37677;53.254;6.594;2023-01-16T09:07:20;16.48;;;9.68;;
51594;SDS011;37677;53.254;6.594;2023-01-16T09:09:46;15.85;;;9.82;;
51594;SDS011;37677;53.254;6.594;2023-01-16T09:12:12;15.82;;;8.68;;
51594;SDS011;37677;53.254;6.594;2023-01-16T09:14:58;18.67;;;9.77;;
51594;SDS011;37677;53.254;6.594;2023-01-16T09:17:24;18.58;;;9.80;;
51594;SDS011;37677;53.254;6.594;2023-01-16T09:19:51;14.45;;;10.05;;
51594;SDS011;37677;53.254;6.594;2023-01-16T09:22:17;16.85;;;9.38;;
51594;SDS011;37677;53.254;6.594;2023-01-16T09:24:43;11.38;;;8.68;;
51594;SDS011;37677;53.254;6.594;2023-01-16T09:27:09;17.58;;;8.93;;
51594;SDS011;37677;53.254;6.594;2023-01-16T09:29:37;17.05;;;9.23;;
51594;SDS011;37677;53.254;6.594;2023-01-16T09:32:04;11.90;;;8.40;;
51594;SDS011;37677;53.254;6.594;2023-01-16T09:34:36;11.93;;;7.78;;
51594;SDS011;37677;53.254;6.594;2023-01-16T09:37:03;14.85;;;8.05;;
51594;SDS011;37677;53.254;6.594;2023-01-16T09:39:30;16.23;;;8.02;;
51594;SDS011;37677;53.254;6.594;2023-01-16T09:42:15;16.02;;;7.72;;
51594;SDS011;37677;53.254;6.594;2023-01-16T09:45:14;16.27;;;7.88;;
51594;SDS011;37677;53.254;6.594;2023-01-16T09:47:43;12.80;;;7.05;;
51594;SDS011;37677;53.254;6.594;2023-01-16T09:50:20;12.68;;;6.88;;
51594;SDS011;37677;53.254;6.594;2023-01-16T09:52:55;11.65;;;6.78;;
51594;SDS011;37677;53.254;6.594;2023-01-16T09:55:58;11.43;;;6.60;;
51594;SDS011;37677;53.254;6.594;2023-01-16T09:58:46;8.93;;;5.85;;
51594;SDS011;37677;53.254;6.594;2023-01-16T10:01:35;13.10;;;6.00;;
51594;SDS011;37677;53.254;6.594;2023-01-16T10:12:01;10.35;;;6.22;;
51594;SDS011;37677;53.254;6.594;2023-01-16T10:17:21;13.85;;;5.45;;
51594;SDS011;37677;53.254;6.594;2023-01-16T10:22:53;10.13;;;4.80;;
51594;SDS011;37677;53.254;6.594;2023-01-16T10:31:30;7.50;;;4.60;;
51594;SDS011;37677;53.254;6.594;2023-01-16T10:36:58;8.98;;;4.75;;
51594;SDS011;37677;53.254;6.594;2023-01-16T10:39:26;11.27;;;4.40;;
51594;SDS011;37677;53.254;6.594;2023-01-16T10:41:59;11.43;;;4.97;;
51594;SDS011;37677;53.254;6.594;2023-01-16T10:47:47;8.63;;;4.55;;
51594;SDS011;37677;53.254;6.594;2023-01-16T10:50:31;9.63;;;4.00;;
51594;SDS011;37677;53.254;6.594;2023-01-16T10:52:57;6.45;;;4.18;;
51594;SDS011;37677;53.254;6.594;2023-01-16T10:55:23;7.05;;;4.10;;
51594;SDS011;37677;53.254;6.594;2023-01-16T10:57:54;8.40;;;4.10;;
51594;SDS011;37677;53.254;6.594;2023-01-16T11:00:23;8.45;;;4.47;;
51594;SDS011;37677;53.254;6.594;2023-01-16T11:02:59;9.38;;;3.60;;
51594;SDS011;37677;53.254;6.594;2023-01-16T11:05:29;6.63;;;3.03;;
51594;SDS011;37677;53.254;6.594;2023-01-16T11:08:04;10.75;;;3.45;;
51594;SDS011;37677;53.254;6.594;2023-01-16T11:10:42;5.20;;;3.30;;
51594;SDS011;37677;53.254;6.594;2023-01-16T11:13:19;4.80;;;3.40;;
51594;SDS011;37677;53.254;6.594;2023-01-16T11:18:57;6.10;;;2.78;;
51594;SDS011;37677;53.254;6.594;2023-01-16T11:21:30;9.32;;;2.70;;
51594;SDS011;37677;53.254;6.594;2023-01-16T11:26:25;7.43;;;2.67;;
51594;SDS011;37677;53.254;6.594;2023-01-16T11:28:52;3.78;;;2.10;;
51594;SDS011;37677;53.254;6.594;2023-01-16T11:31:21;6.82;;;2.53;;
51594;SDS011;37677;53.254;6.594;2023-01-16T11:33:52;2.83;;;2.28;;
51594;SDS011;37677;53.254;6.594;2023-01-16T11:36:24;6.20;;;2.35;;
51594;SDS011;37677;53.254;6.594;2023-01-16T11:38:52;6.45;;;2.20;;
51594;SDS011;37677;53.254;6.594;2023-01-16T11:41:20;3.55;;;2.30;;
51594;SDS011;37677;53.254;6.594;2023-01-16T11:46:58;6.55;;;2.05;;
51594;SDS011;37677;53.254;6.594;2023-01-16T11:49:27;4.35;;;2.38;;
51594;SDS011;37677;53.254;6.594;2023-01-16T11:51:59;5.22;;;2.80;;
51594;SDS011;37677;53.254;6.594;2023-01-16T11:54:32;3.97;;;2.22;;
51594;SDS011;37677;53.254;6.594;2023-01-16T11:59:49;5.18;;;2.47;;
51594;SDS011;37677;53.254;6.594;2023-01-16T12:03:15;6.43;;;2.85;;
51594;SDS011;37677;53.254;6.594;2023-01-16T12:35:46;4.85;;;2.50;;
51594;SDS011;37677;53.254;6.594;2023-01-16T12:38:19;4.47;;;2.55;;
51594;SDS011;37677;53.254;6.594;2023-01-16T12:47:30;4.88;;;2.75;;
51594;SDS011;37677;53.254;6.594;2023-01-16T12:49:49;3.92;;;2.65;;
51594;SDS011;37677;53.254;6.594;2023-01-16T12:52:43;5.80;;;3.15;;
51594;SDS011;37677;53.254;6.594;2023-01-16T12:58:24;3.33;;;2.75;;
51594;SDS011;37677;53.254;6.594;2023-01-16T13:05:53;5.25;;;2.85;;
51594;SDS011;37677;53.254;6.594;2023-01-16T13:08:26;6.60;;;3.28;;
51594;SDS011;37677;53.254;6.594;2023-01-16T13:11:03;7.88;;;4.05;;
51594;SDS011;37677;53.254;6.594;2023-01-16T13:13:57;8.68;;;4.10;;
51594;SDS011;37677;53.254;6.594;2023-01-16T13:16:33;5.80;;;3.60;;
51594;SDS011;37677;53.254;6.594;2023-01-16T13:19:26;6.85;;;3.70;;
51594;SDS011;37677;53.254;6.594;2023-01-16T13:22:09;6.78;;;3.95;;
51594;SDS011;37677;53.254;6.594;2023-01-16T13:24:47;8.10;;;3.83;;
51594;SDS011;37677;53.254;6.594;2023-01-16T13:27:20;5.60;;;3.78;;
51594;SDS011;37677;53.254;6.594;2023-01-16T13:29:51;7.30;;;3.90;;
51594;SDS011;37677;53.254;6.594;2023-01-16T13:32:28;10.10;;;4.43;;
51594;SDS011;37677;53.254;6.594;2023-01-16T13:35:17;7.22;;;4.20;;
51594;SDS011;37677;53.254;6.594;2023-01-16T13:38:12;4.78;;;3.75;;
51594;SDS011;37677;53.254;6.594;2023-01-16T13:43:24;7.35;;;3.70;;
51594;SDS011;37677;53.254;6.594;2023-01-16T13:46:13;8.60;;;3.28;;
51594;SDS011;37677;53.254;6.594;2023-01-16T13:48:39;4.68;;;3.42;;
51594;SDS011;37677;53.254;6.594;2023-01-16T13:51:11;5.10;;;3.15;;
51594;SDS011;37677;53.254;6.594;2023-01-16T13:53:43;5.15;;;3.47;;
51594;SDS011;37677;53.254;6.594;2023-01-16T13:56:16;6.13;;;3.35;;
51594;SDS011;37677;53.254;6.594;2023-01-16T13:58:54;6.97;;;3.90;;
51594;SDS011;37677;53.254;6.594;2023-01-16T14:01:32;5.10;;;3.58;;
51594;SDS011;37677;53.254;6.594;2023-01-16T14:06:45;5.97;;;4.00;;
51594;SDS011;37677;53.254;6.594;2023-01-16T14:09:57;5.05;;;3.15;;
51594;SDS011;37677;53.254;6.594;2023-01-16T14:15:26;8.18;;;3.70;;
51594;SDS011;37677;53.254;6.594;2023-01-16T14:18:39;7.53;;;3.63;;
51594;SDS011;37677;53.254;6.594;2023-01-16T14:21:13;4.82;;;2.95;;
51594;SDS011;37677;53.254;6.594;2023-01-16T14:23:49;5.07;;;3.28;;
51594;SDS011;37677;53.254;6.594;2023-01-16T14:29:18;8.85;;;3.50;;
51594;SDS011;37677;53.254;6.594;2023-01-16T14:32:05;5.45;;;3.38;;
51594;SDS011;37677;53.254;6.594;2023-01-16T14:37:40;4.22;;;3.20;;
51594;SDS011;37677;53.254;6.594;2023-01-16T14:42:55;7.35;;;3.10;;
51594;SDS011;37677;53.254;6.594;2023-01-16T14:45:41;7.88;;;3.35;;
51594;SDS011;37677;53.254;6.594;2023-01-16T14:52:36;6.88;;;3.47;;
51594;SDS011;37677;53.254;6.594;2023-01-16T14:55:29;6.55;;;2.97;;
51594;SDS011;37677;53.254;6.594;2023-01-16T14:58:22;6.22;;;3.05;;
51594;SDS011;37677;53.254;6.594;2023-01-16T15:00:55;7.05;;;2.88;;
51594;SDS011;37677;53.254;6.594;2023-01-16T15:03:42;4.65;;;2.72;;
51594;SDS011;37677;53.254;6.594;2023-01-16T15:06:09;5.85;;;3.17;;
51594;SDS011;37677;53.254;6.594;2023-01-16T15:08:35;4.53;;;3.08;;
51594;SDS011;37677;53.254;6.594;2023-01-16T15:11:08;4.72;;;3.13;;
51594;SDS011;37677;53.254;6.594;2023-01-16T15:14:03;5.75;;;3.05;;
51594;SDS011;37677;53.254;6.594;2023-01-16T15:19:56;9.52;;;3.67;;
51594;SDS011;37677;53.254;6.594;2023-01-16T15:22:43;5.20;;;2.90;;
51594;SDS011;37677;53.254;6.594;2023-01-16T15:25:21;6.28;;;3.42;;
51594;SDS011;37677;53.254;6.594;2023-01-16T15:28:10;7.03;;;3.37;;
51594;SDS011;37677;53.254;6.594;2023-01-16T15:30:41;4.90;;;3.10;;
51594;SDS011;37677;53.254;6.594;2023-01-16T15:33:20;3.60;;;2.83;;
51594;SDS011;37677;53.254;6.594;2023-01-16T15:36:17;4.72;;;3.22;;
51594;SDS011;37677;53.254;6.594;2023-01-16T15:38:52;6.15;;;2.70;;
51594;SDS011;37677;53.254;6.594;2023-01-16T15:41:29;5.32;;;2.90;;
51594;SDS011;37677;53.254;6.594;2023-01-16T15:44:16;4.65;;;2.42;;
51594;SDS011;37677;53.254;6.594;2023-01-16T15:50:30;5.68;;;2.95;;
51594;SDS011;37677;53.254;6.594;2023-01-16T15:53:00;4.32;;;2.65;;
51594;SDS011;37677;53.254;6.594;2023-01-16T15:55:30;4.78;;;2.67;;
51594;SDS011;37677;53.254;6.594;2023-01-16T15:58:10;3.92;;;2.83;;
51594;SDS011;37677;53.254;6.594;2023-01-16T16:00:43;5.95;;;2.38;;
51594;SDS011;37677;53.254;6.594;2023-01-16T16:03:19;5.30;;;2.70;;
51594;SDS011;37677;53.254;6.594;2023-01-16T16:05:51;4.45;;;2.72;;
51594;SDS011;37677;53.254;6.594;2023-01-16T16:08:21;4.40;;;2.63;;
51594;SDS011;37677;53.254;6.594;2023-01-16T16:10:52;3.70;;;2.38;;
51594;SDS011;37677;53.254;6.594;2023-01-16T16:13:40;3.75;;;2.70;;
51594;SDS011;37677;53.254;6.594;2023-01-16T16:16:19;8.20;;;2.95;;
51594;SDS011;37677;53.254;6.594;2023-01-16T16:19:09;6.82;;;3.20;;
51594;SDS011;37677;53.254;6.594;2023-01-16T16:21:54;3.58;;;2.90;;
51594;SDS011;37677;53.254;6.594;2023-01-16T16:24:39;4.70;;;2.97;;
51594;SDS011;37677;53.254;6.594;2023-01-16T16:27:12;6.75;;;3.22;;
51594;SDS011;37677;53.254;6.594;2023-01-16T16:29:41;3.70;;;3.10;;
51594;SDS011;37677;53.254;6.594;2023-01-16T16:32:13;4.20;;;3.50;;
51594;SDS011;37677;53.254;6.594;2023-01-16T16:34:41;6.82;;;3.30;;
51594;SDS011;37677;53.254;6.594;2023-01-16T16:37:17;4.88;;;3.40;;
51594;SDS011;37677;53.254;6.594;2023-01-16T16:39:47;4.35;;;3.40;;
51594;SDS011;37677;53.254;6.594;2023-01-16T16:47:33;5.43;;;3.63;;
51594;SDS011;37677;53.254;6.594;2023-01-16T16:50:00;3.55;;;3.25;;
51594;SDS011;37677;53.254;6.594;2023-01-16T16:55:00;4.35;;;3.80;;
51594;SDS011;37677;53.254;6.594;2023-01-16T16:57:28;4.55;;;3.90;;
51594;SDS011;37677;53.254;6.594;2023-01-16T17:00:04;5.18;;;3.75;;
51594;SDS011;37677;53.254;6.594;2023-01-16T17:02:30;6.85;;;4.32;;
51594;SDS011;37677;53.254;6.594;2023-01-16T17:04:56;5.07;;;4.63;;
51594;SDS011;37677;53.254;6.594;2023-01-16T17:07:23;6.80;;;5.00;;
51594;SDS011;37677;53.254;6.594;2023-01-16T17:09:49;5.00;;;4.50;;
51594;SDS011;37677;53.254;6.594;2023-01-16T17:12:16;8.00;;;5.50;;
51594;SDS011;37677;53.254;6.594;2023-01-16T17:14:46;8.18;;;5.18;;
51594;SDS011;37677;53.254;6.594;2023-01-16T17:17:16;5.28;;;4.63;;
51594;SDS011;37677;53.254;6.594;2023-01-16T17:19:43;5.95;;;5.32;;
51594;SDS011;37677;53.254;6.594;2023-01-16T17:22:10;5.65;;;4.93;;
51594;SDS011;37677;53.254;6.594;2023-01-16T17:24:36;6.15;;;4.85;;
51594;SDS011;37677;53.254;6.594;2023-01-16T17:27:03;5.50;;;5.00;;
51594;SDS011;37677;53.254;6.594;2023-01-16T17:29:34;4.38;;;4.00;;
51594;SDS011;37677;53.254;6.594;2023-01-16T17:32:01;4.95;;;4.47;;
51594;SDS011;37677;53.254;6.594;2023-01-16T17:34:31;4.38;;;3.95;;
51594;SDS011;37677;53.254;6.594;2023-01-16T17:36:57;4.80;;;4.22;;
51594;SDS011;37677;53.254;6.594;2023-01-16T17:39:25;4.75;;;4.35;;
51594;SDS011;37677;53.254;6.594;2023-01-16T17:41:53;5.93;;;4.25;;
51594;SDS011;37677;53.254;6.594;2023-01-16T17:44:22;6.03;;;4.32;;
51594;SDS011;37677;53.254;6.594;2023-01-16T17:47:08;5.03;;;4.30;;
51594;SDS011;37677;53.254;6.594;2023-01-16T17:49:35;4.80;;;4.35;;
51594;SDS011;37677;53.254;6.594;2023-01-16T17:52:22;4.97;;;4.50;;
51594;SDS011;37677;53.254;6.594;2023-01-16T17:54:48;6.43;;;5.55;;
51594;SDS011;37677;53.254;6.594;2023-01-16T17:57:32;6.90;;;5.93;;